Time;durP1;ratioP1;P1;durP2;ratioP2;P2;SDS_P1;SDS_P2;PMS_P1;PMS_P2;Temp;Humidity;BMP_temperature;BMP_pressure;BME280_temperature;BME280_humidity;BME280_pressure;Samples;Min_cycle;Max_cycle;Signal;HPM_P1;HPM_P2
2023/12/29 00:01:54;;;;;;;9.82;2.10;;;9.90;99.90;;;;;;5039854;28;20055;-69
2023/12/29 00:04:20;;;;;;;7.65;2.67;;;9.90;99.90;;;;;;5039912;28;20045;-69
2023/12/29 00:06:46;;;;;;;7.57;2.45;;;9.90;99.90;;;;;;5032597;28;20047;-69
2023/12/29 00:09:12;;;;;;;9.57;2.03;;;9.90;99.90;;;;;;5039054;28;20492;-69
2023/12/29 00:11:39;;;;;;;7.43;1.65;;;9.90;99.90;;;;;;5015735;28;20045;-70
2023/12/29 00:14:05;;;;;;;14.05;1.95;;;9.90;99.90;;;;;;5037508;28;20049;-69
2023/12/29 00:16:31;;;;;;;12.32;1.92;;;9.90;99.90;;;;;;5040910;28;20053;-69
2023/12/29 00:18:56;;;;;;;11.27;2.57;;;9.80;99.90;;;;;;5038545;28;20076;-69
2023/12/29 00:21:22;;;;;;;10.30;1.93;;;9.90;99.90;;;;;;5035847;28;20053;-70
2023/12/29 00:23:48;;;;;;;8.20;1.57;;;9.80;99.90;;;;;;5036850;28;20040;-70
2023/12/29 00:26:16;;;;;;;8.07;2.17;;;9.80;99.90;;;;;;5039011;28;20120;-70
2023/12/29 00:28:43;;;;;;;8.10;1.80;;;9.90;99.90;;;;;;5038055;28;20463;-69
2023/12/29 00:31:14;;;;;;;7.28;1.80;;;9.80;99.90;;;;;;5036765;28;20045;-69
2023/12/29 00:33:39;;;;;;;10.43;2.25;;;9.80;99.90;;;;;;5036047;28;20036;-69
2023/12/29 00:36:05;;;;;;;17.63;2.00;;;9.80;99.90;;;;;;5041087;28;20048;-69
2023/12/29 00:38:31;;;;;;;8.98;2.20;;;9.80;99.90;;;;;;5042414;28;20112;-69
2023/12/29 00:40:56;;;;;;;13.80;2.40;;;9.80;99.90;;;;;;5040977;28;20171;-70
2023/12/29 00:43:22;;;;;;;8.67;2.03;;;9.80;99.90;;;;;;5040389;28;20507;-70
2023/12/29 00:45:48;;;;;;;10.82;1.98;;;9.80;99.90;;;;;;5035431;28;20083;-70
2023/12/29 00:48:14;;;;;;;11.13;2.63;;;9.80;99.90;;;;;;5043477;28;20264;-70
2023/12/29 00:50:39;;;;;;;14.33;1.70;;;9.80;99.90;;;;;;5038917;28;20175;-69
2023/12/29 00:53:05;;;;;;;13.97;3.20;;;9.80;99.90;;;;;;5039557;28;20476;-69
2023/12/29 00:55:31;;;;;;;11.43;1.73;;;9.80;99.90;;;;;;5038375;28;20044;-69
2023/12/29 00:57:56;;;;;;;6.83;1.63;;;9.80;99.90;;;;;;5041350;28;20267;-69
2023/12/29 01:00:22;;;;;;;9.70;2.17;;;9.80;99.90;;;;;;5034642;28;20402;-70
2023/12/29 01:02:47;;;;;;;14.90;2.23;;;9.80;99.90;;;;;;5037514;28;20524;-69
2023/12/29 01:05:19;;;;;;;12.47;1.73;;;9.80;99.90;;;;;;5026508;28;20044;-70
2023/12/29 01:07:45;;;;;;;13.05;1.88;;;9.80;99.90;;;;;;5041880;28;20410;-69
2023/12/29 01:10:11;;;;;;;10.07;1.73;;;9.70;99.90;;;;;;5042038;28;20036;-69
2023/12/29 01:12:36;;;;;;;11.53;1.90;;;9.70;99.90;;;;;;5036895;28;20068;-69
2023/12/29 01:15:02;;;;;;;9.77;1.60;;;9.70;99.90;;;;;;5039645;28;20680;-69
2023/12/29 01:17:28;;;;;;;13.63;1.92;;;9.70;99.90;;;;;;5042595;28;20061;-69
2023/12/29 01:19:54;;;;;;;13.43;1.88;;;9.70;99.90;;;;;;5037397;28;20128;-69
2023/12/29 01:22:20;;;;;;;10.93;2.17;;;9.70;99.90;;;;;;5041173;28;20182;-70
2023/12/29 01:24:45;;;;;;;9.05;2.15;;;9.70;99.90;;;;;;5034309;28;20604;-69
2023/12/29 01:27:11;;;;;;;7.77;2.33;;;9.70;99.90;;;;;;5041758;28;20033;-69
2023/12/29 01:29:37;;;;;;;12.05;1.95;;;9.70;99.90;;;;;;5042306;28;20512;-70
2023/12/29 01:32:03;;;;;;;11.37;1.90;;;9.70;99.90;;;;;;5034317;28;20053;-70
2023/12/29 01:34:33;;;;;;;8.80;1.83;;;9.70;99.90;;;;;;5040901;28;20044;-69
2023/12/29 01:37:00;;;;;;;7.70;1.58;;;9.70;99.90;;;;;;5033453;28;20061;-69
2023/12/29 01:39:25;;;;;;;13.63;1.63;;;9.70;99.90;;;;;;5043997;28;20244;-70
2023/12/29 01:41:51;;;;;;;10.93;1.50;;;9.70;99.90;;;;;;5038512;28;20227;-68
2023/12/29 01:44:16;;;;;;;7.67;1.57;;;9.70;99.90;;;;;;5037113;28;20124;-68
2023/12/29 01:46:42;;;;;;;11.10;1.77;;;9.70;99.90;;;;;;5037663;28;20478;-69
2023/12/29 01:49:07;;;;;;;6.77;2.00;;;9.60;99.90;;;;;;5033816;28;20087;-69
2023/12/29 01:51:33;;;;;;;8.93;1.77;;;9.60;99.90;;;;;;5040993;28;20048;-69
2023/12/29 01:53:59;;;;;;;7.77;1.47;;;9.50;99.90;;;;;;5036005;28;20587;-69
2023/12/29 01:56:25;;;;;;;6.40;1.05;;;9.40;99.90;;;;;;5041657;28;20065;-69
2023/12/29 01:58:51;;;;;;;7.72;1.48;;;9.40;99.90;;;;;;5032530;28;20128;-69
2023/12/29 02:01:20;;;;;;;10.90;1.10;;;9.50;99.90;;;;;;5037516;28;22417;-69
2023/12/29 02:03:47;;;;;;;5.95;1.30;;;9.50;99.90;;;;;;5021413;28;20103;-69
2023/12/29 02:06:13;;;;;;;8.20;1.45;;;9.40;99.90;;;;;;5039807;28;20124;-69
2023/12/29 02:08:40;;;;;;;10.90;1.40;;;9.30;99.90;;;;;;5038072;28;20045;-68
2023/12/29 02:11:07;;;;;;;6.38;1.38;;;9.20;99.90;;;;;;5042128;28;20111;-68
2023/12/29 02:13:32;;;;;;;8.85;1.80;;;9.00;99.90;;;;;;5042884;28;20060;-68
2023/12/29 02:16:18;;;;;;;7.80;1.73;;;8.90;99.90;;;;;;5017638;28;20705;-68
2023/12/29 02:18:47;;;;;;;8.10;1.58;;;8.80;99.90;;;;;;5042711;28;20366;-69
2023/12/29 02:21:13;;;;;;;10.05;1.55;;;8.80;99.90;;;;;;5035363;28;20044;-69
2023/12/29 02:23:38;;;;;;;6.55;1.23;;;8.70;99.90;;;;;;5037716;28;20089;-68
2023/12/29 02:26:10;;;;;;;9.60;1.50;;;8.70;99.90;;;;;;5042297;28;20378;-69
2023/12/29 02:28:43;;;;;;;13.20;2.47;;;8.70;99.90;;;;;;5042849;28;20299;-69
2023/12/29 02:31:18;;;;;;;10.68;1.95;;;8.80;99.90;;;;;;5032327;28;20234;-69
2023/12/29 02:33:47;;;;;;;16.55;2.08;;;8.80;99.90;;;;;;5018700;28;20037;-69
2023/12/29 02:36:15;;;;;;;13.75;1.90;;;8.80;99.90;;;;;;5037676;28;20086;-69
2023/12/29 02:38:41;;;;;;;10.68;2.47;;;8.90;99.90;;;;;;5038905;28;20045;-69
2023/12/29 02:41:06;;;;;;;23.20;2.60;;;8.90;99.90;;;;;;5034218;28;20055;-68
2023/12/29 02:43:32;;;;;;;17.47;2.50;;;9.00;99.90;;;;;;5040950;28;20738;-69
2023/12/29 02:45:58;;;;;;;18.02;3.33;;;9.10;99.90;;;;;;5032751;28;20281;-69
2023/12/29 02:48:24;;;;;;;16.37;2.40;;;9.20;99.90;;;;;;5037109;28;20079;-69
2023/12/29 02:50:49;;;;;;;17.07;2.67;;;9.30;99.90;;;;;;5038257;28;20495;-69
2023/12/29 02:53:16;;;;;;;12.87;2.87;;;9.30;99.90;;;;;;5039993;28;20394;-69
2023/12/29 02:55:41;;;;;;;18.98;3.13;;;9.40;99.90;;;;;;5037731;28;20045;-69
2023/12/29 02:58:08;;;;;;;17.97;3.97;;;9.50;99.90;;;;;;5036489;28;20477;-69
2023/12/29 03:00:33;;;;;;;;;;;9.50;99.90;;;;;;5036509;28;20041;-69
2023/12/29 03:02:59;;;;;;;23.65;2.78;;;9.50;99.90;;;;;;5019599;28;19929;-69
2023/12/29 03:05:25;;;;;;;27.70;2.90;;;9.60;99.90;;;;;;5034190;28;20445;-69
2023/12/29 03:07:50;;;;;;;19.50;3.23;;;9.60;99.90;;;;;;5040187;28;20040;-69
2023/12/29 03:10:16;;;;;;;22.00;3.33;;;9.70;99.90;;;;;;5044583;28;20288;-69
2023/12/29 03:12:41;;;;;;;25.87;3.93;;;9.80;99.90;;;;;;5016131;28;20112;-69
2023/12/29 03:15:07;;;;;;;16.37;2.50;;;9.80;99.90;;;;;;5038848;28;20194;-69
2023/12/29 03:17:33;;;;;;;17.05;3.10;;;9.80;99.90;;;;;;5039211;28;20122;-69
2023/12/29 03:19:59;;;;;;;18.87;3.40;;;9.80;99.90;;;;;;5039593;28;20517;-69
2023/12/29 03:22:24;;;;;;;16.88;3.53;;;9.80;99.90;;;;;;5022476;28;20064;-68
2023/12/29 03:24:50;;;;;;;21.67;3.37;;;9.90;99.90;;;;;;5038476;28;20049;-68
2023/12/29 03:27:15;;;;;;;14.47;2.97;;;9.90;99.90;;;;;;5039710;28;20388;-68
2023/12/29 03:29:41;;;;;;;17.47;3.20;;;9.80;99.90;;;;;;5039359;28;20040;-69
2023/12/29 03:32:07;;;;;;;32.63;4.70;;;9.80;99.90;;;;;;5036021;28;20044;-68
2023/12/29 03:34:33;;;;;;;19.50;3.13;;;9.80;99.90;;;;;;5022905;28;20510;-69
2023/12/29 03:36:58;;;;;;;19.55;3.30;;;9.70;99.90;;;;;;5035813;28;21208;-69
2023/12/29 03:39:24;;;;;;;16.80;4.10;;;9.70;99.90;;;;;;5043755;28;20082;-69
2023/12/29 03:41:49;;;;;;;28.17;3.57;;;9.70;99.90;;;;;;5024259;28;20107;-69
2023/12/29 03:44:16;;;;;;;21.03;3.50;;;9.60;99.90;;;;;;5021727;28;20049;-69
2023/12/29 03:46:42;;;;;;;;;;;9.60;99.90;;;;;;5035182;28;20044;-69
2023/12/29 03:49:07;;;;;;;26.38;4.80;;;9.60;99.90;;;;;;5033792;28;19921;-68
2023/12/29 03:51:33;;;;;;;25.23;3.27;;;9.70;99.90;;;;;;5033003;28;20044;-69
2023/12/29 03:53:59;;;;;;;17.37;2.90;;;9.50;99.90;;;;;;5034927;28;20044;-69
2023/12/29 03:56:24;;;;;;;14.43;2.50;;;9.70;99.90;;;;;;5030598;28;20045;-69
2023/12/29 03:58:50;;;;;;;25.30;3.90;;;9.60;99.90;;;;;;5023128;28;20099;-69
2023/12/29 04:01:17;;;;;;;21.50;2.67;;;9.60;99.90;;;;;;5037624;28;20076;-69
2023/12/29 04:03:43;;;;;;;18.88;2.90;;;9.60;99.90;;;;;;5034953;28;20041;-68
2023/12/29 04:06:10;;;;;;;24.17;3.13;;;9.60;99.90;;;;;;5034401;28;20041;-69
2023/12/29 04:08:36;;;;;;;19.25;2.53;;;9.60;99.90;;;;;;5029081;28;20049;-69
2023/12/29 04:11:03;;;;;;;;;;;9.60;99.90;;;;;;5031071;28;20040;-69
2023/12/29 04:13:28;;;;;;;14.48;2.70;;;9.50;99.90;;;;;;5044992;28;20125;-69
2023/12/29 04:15:54;;;;;;;23.30;3.27;;;9.60;99.90;;;;;;5019801;28;20229;-69
2023/12/29 04:18:22;;;;;;;22.70;2.77;;;9.60;99.90;;;;;;5035009;28;20033;-69
2023/12/29 04:20:48;;;;;;;19.13;2.90;;;9.60;99.90;;;;;;5033664;28;20140;-69
2023/12/29 04:23:14;;;;;;;16.23;3.17;;;9.50;99.90;;;;;;5036033;28;20040;-69
2023/12/29 04:25:40;;;;;;;24.27;2.80;;;9.50;99.90;;;;;;5027926;28;20045;-69
2023/12/29 04:28:06;;;;;;;19.70;3.60;;;9.50;99.90;;;;;;5043120;28;20036;-68
2023/12/29 04:30:32;;;;;;;17.55;4.05;;;9.50;99.90;;;;;;5038806;28;20117;-69
2023/12/29 04:32:58;;;;;;;16.70;3.30;;;9.50;99.90;;;;;;5040237;28;20508;-69
2023/12/29 04:35:23;;;;;;;14.67;3.10;;;9.50;99.90;;;;;;5035634;28;20518;-69
2023/12/29 04:37:52;;;;;;;21.60;3.10;;;9.50;99.90;;;;;;5034036;28;20045;-69
2023/12/29 04:40:18;;;;;;;15.18;2.45;;;9.50;99.90;;;;;;5031173;28;20147;-69
2023/12/29 04:42:43;;;;;;;11.17;2.10;;;9.50;99.90;;;;;;5035305;28;20467;-69
2023/12/29 04:45:10;;;;;;;14.80;2.73;;;9.50;99.90;;;;;;5030244;28;20305;-69
2023/12/29 04:47:36;;;;;;;17.00;2.20;;;9.50;99.90;;;;;;5035140;28;20771;-69
2023/12/29 04:50:02;;;;;;;12.98;2.58;;;9.50;99.90;;;;;;5035805;28;20055;-69
2023/12/29 04:52:28;;;;;;;17.48;3.70;;;9.50;99.90;;;;;;5038684;28;20041;-69
2023/12/29 04:54:53;;;;;;;19.73;2.55;;;9.50;99.90;;;;;;5035112;28;20052;-69
2023/12/29 04:57:19;;;;;;;15.00;2.97;;;9.50;99.90;;;;;;5036447;28;20117;-69
2023/12/29 04:59:44;;;;;;;15.07;3.08;;;9.60;99.90;;;;;;5036449;28;20132;-69
2023/12/29 05:02:10;;;;;;;17.17;3.50;;;9.60;99.90;;;;;;5032187;28;20057;-68
2023/12/29 05:04:37;;;;;;;16.70;2.67;;;9.60;99.90;;;;;;5033384;28;20063;-69
2023/12/29 05:07:05;;;;;;;16.95;3.97;;;9.70;99.90;;;;;;5029955;28;20044;-69
2023/12/29 05:09:30;;;;;;;13.68;2.20;;;9.70;99.90;;;;;;5029009;28;20033;-69
2023/12/29 05:11:56;;;;;;;13.37;2.53;;;9.70;99.90;;;;;;5034753;28;20099;-69
2023/12/29 05:14:22;;;;;;;19.47;4.10;;;9.70;99.90;;;;;;5034512;28;20048;-69
2023/12/29 05:16:47;;;;;;;10.73;2.20;;;9.70;99.90;;;;;;5042465;28;20132;-69
2023/12/29 05:19:13;;;;;;;14.63;3.30;;;9.70;99.90;;;;;;5028365;28;20051;-69
2023/12/29 05:21:38;;;;;;;14.17;2.10;;;9.70;99.90;;;;;;5036349;28;20046;-68
2023/12/29 05:24:05;;;;;;;19.17;3.43;;;9.70;99.90;;;;;;5016706;28;20168;-69
2023/12/29 05:26:31;;;;;;;17.48;2.97;;;9.70;99.90;;;;;;5034549;28;20041;-69
2023/12/29 05:28:57;;;;;;;17.80;2.67;;;9.70;99.90;;;;;;5011008;28;20406;-68
2023/12/29 05:31:23;;;;;;;18.33;2.90;;;9.70;99.90;;;;;;5028463;28;20045;-68
2023/12/29 05:33:48;;;;;;;15.53;2.70;;;9.70;99.90;;;;;;5033748;28;20506;-69
2023/12/29 05:36:14;;;;;;;18.70;4.53;;;9.70;99.90;;;;;;5036615;28;20049;-69
2023/12/29 05:38:41;;;;;;;18.77;3.60;;;9.70;99.90;;;;;;5027697;28;20437;-69
2023/12/29 05:41:06;;;;;;;10.52;2.13;;;9.70;99.90;;;;;;5036322;28;20052;-69
2023/12/29 05:43:33;;;;;;;14.80;3.20;;;9.70;99.90;;;;;;5040788;28;20526;-69
2023/12/29 05:45:59;;;;;;;11.35;2.17;;;9.60;99.90;;;;;;5032178;28;20049;-69
2023/12/29 05:48:25;;;;;;;11.90;1.77;;;9.70;99.90;;;;;;5031011;28;20484;-69
2023/12/29 05:50:51;;;;;;;28.13;2.92;;;9.70;99.90;;;;;;5035429;28;20089;-69
2023/12/29 05:53:17;;;;;;;20.38;3.10;;;9.70;99.90;;;;;;5037070;28;20036;-69
2023/12/29 05:55:43;;;;;;;23.37;3.33;;;9.70;99.90;;;;;;5041992;28;20551;-69
2023/12/29 05:58:09;;;;;;;;;;;9.80;99.90;;;;;;5029423;28;20429;-68
2023/12/29 06:00:36;;;;;;;9.70;2.20;;;9.80;99.90;;;;;;5040190;28;19927;-69
2023/12/29 06:03:04;;;;;;;13.35;2.25;;;9.80;99.90;;;;;;5043541;28;20044;-68
2023/12/29 06:05:29;;;;;;;13.98;2.80;;;9.80;99.90;;;;;;5035925;28;20041;-69
2023/12/29 06:07:55;;;;;;;14.57;3.08;;;9.80;99.90;;;;;;5034407;28;20041;-69
2023/12/29 06:10:21;;;;;;;19.35;3.08;;;9.80;99.90;;;;;;5031962;28;20409;-69
2023/12/29 06:12:47;;;;;;;16.25;2.85;;;9.90;99.90;;;;;;5034982;28;20041;-69
2023/12/29 06:15:16;;;;;;;18.05;3.47;;;9.80;99.90;;;;;;5041415;28;20503;-69
2023/12/29 06:17:43;;;;;;;19.50;3.10;;;9.80;99.90;;;;;;5037812;28;20056;-69
2023/12/29 06:20:10;;;;;;;20.17;3.35;;;9.80;99.90;;;;;;5032915;28;20052;-68
2023/12/29 06:22:45;;;;;;;15.00;2.42;;;9.80;99.90;;;;;;5027284;28;20453;-69
2023/12/29 06:25:11;;;;;;;10.20;2.97;;;9.80;99.90;;;;;;5040954;28;20183;-68
2023/12/29 06:27:37;;;;;;;;;;;9.70;99.90;;;;;;5035227;28;20044;-69
2023/12/29 06:30:07;;;;;;;16.02;2.65;;;9.70;99.90;;;;;;5034347;28;19986;-69
2023/12/29 06:32:34;;;;;;;21.50;2.70;;;9.60;99.90;;;;;;5035551;28;20076;-68
2023/12/29 06:34:59;;;;;;;14.32;2.88;;;9.60;99.90;;;;;;5031735;28;20037;-69
2023/12/29 06:37:25;;;;;;;16.27;2.45;;;9.60;99.90;;;;;;5032389;28;20067;-68
2023/12/29 06:39:51;;;;;;;18.07;3.03;;;9.50;99.90;;;;;;5031604;28;20120;-69
2023/12/29 06:42:16;;;;;;;19.37;3.03;;;9.50;99.90;;;;;;5043368;28;20052;-69
2023/12/29 06:44:42;;;;;;;21.03;3.30;;;9.50;99.90;;;;;;5040360;28;20041;-69
2023/12/29 06:47:09;;;;;;;21.47;2.43;;;9.50;99.90;;;;;;5035581;28;20174;-69
2023/12/29 06:49:35;;;;;;;18.40;3.03;;;9.50;99.90;;;;;;5033098;28;20480;-69
2023/12/29 06:52:01;;;;;;;13.68;2.50;;;9.50;99.90;;;;;;5034373;28;20382;-69
2023/12/29 06:54:26;;;;;;;16.27;3.13;;;9.60;99.90;;;;;;5043112;28;20053;-69
2023/12/29 06:56:52;;;;;;;19.13;3.27;;;9.60;99.90;;;;;;5031317;28;20052;-69
2023/12/29 06:59:19;;;;;;;16.23;2.73;;;9.60;99.90;;;;;;5035197;28;20036;-69
2023/12/29 07:01:45;;;;;;;13.75;2.13;;;9.60;99.90;;;;;;5030142;28;20482;-69
2023/12/29 07:04:12;;;;;;;17.08;2.35;;;9.60;99.90;;;;;;5032740;28;20039;-69
2023/12/29 07:06:37;;;;;;;18.00;3.53;;;9.70;99.90;;;;;;5040644;28;20490;-69
2023/12/29 07:09:04;;;;;;;19.73;3.50;;;9.70;99.90;;;;;;5037689;28;20308;-69
2023/12/29 07:11:29;;;;;;;14.73;3.25;;;9.70;99.90;;;;;;5032631;28;20349;-69
2023/12/29 07:13:55;;;;;;;22.93;2.47;;;9.60;99.90;;;;;;5035336;28;20119;-69
2023/12/29 07:16:21;;;;;;;24.83;3.17;;;9.60;99.90;;;;;;5027909;28;20029;-69
2023/12/29 07:18:47;;;;;;;17.37;2.90;;;9.60;99.90;;;;;;5029006;28;20429;-68
2023/12/29 07:21:13;;;;;;;17.75;2.38;;;9.70;99.90;;;;;;5029649;28;20106;-69
2023/12/29 07:23:40;;;;;;;21.00;2.92;;;9.70;99.90;;;;;;5028379;28;20061;-69
2023/12/29 07:26:06;;;;;;;;;;;9.70;99.90;;;;;;5039398;28;20469;-69
2023/12/29 07:28:32;;;;;;;16.02;2.88;;;9.70;99.90;;;;;;5037946;28;19924;-69
2023/12/29 07:30:58;;;;;;;14.35;2.28;;;9.70;99.90;;;;;;5034024;28;20037;-69
2023/12/29 07:33:24;;;;;;;22.08;3.85;;;9.70;99.90;;;;;;5030461;28;20513;-69
2023/12/29 07:35:50;;;;;;;18.40;3.67;;;9.70;99.90;;;;;;5035699;28;20048;-69
2023/12/29 07:38:16;;;;;;;15.77;2.13;;;9.80;99.90;;;;;;5038470;28;20270;-69
2023/12/29 07:40:41;;;;;;;17.30;3.40;;;9.80;99.90;;;;;;5037582;28;20045;-69
2023/12/29 07:43:08;;;;;;;19.70;3.00;;;9.80;99.90;;;;;;5035567;28;20128;-69
2023/12/29 07:45:33;;;;;;;19.95;2.70;;;9.80;99.90;;;;;;5027474;28;20046;-69
2023/12/29 07:48:00;;;;;;;19.80;3.17;;;9.90;99.90;;;;;;5040506;28;21090;-69
2023/12/29 07:50:25;;;;;;;19.52;3.03;;;9.90;99.90;;;;;;5041886;28;20270;-69
2023/12/29 07:52:51;;;;;;;17.20;3.50;;;9.90;99.90;;;;;;5038223;28;20461;-69
2023/12/29 07:55:16;;;;;;;17.57;2.33;;;9.90;99.90;;;;;;5039573;28;20045;-69
2023/12/29 07:57:43;;;;;;;23.87;2.63;;;9.90;99.90;;;;;;5029692;28;20056;-69
2023/12/29 08:00:09;;;;;;;13.77;2.83;;;9.80;99.90;;;;;;5035662;28;20290;-69
2023/12/29 08:02:35;;;;;;;12.80;2.83;;;9.80;99.90;;;;;;5034646;28;20076;-69
2023/12/29 08:05:02;;;;;;;21.33;5.27;;;9.80;99.90;;;;;;5035397;28;20046;-69
2023/12/29 08:07:27;;;;;;;;;;;9.80;99.90;;;;;;5033845;28;20274;-69
2023/12/29 08:09:53;;;;;;;17.63;3.47;;;9.70;99.90;;;;;;5032362;28;19963;-69
2023/12/29 08:12:18;;;;;;;18.00;3.37;;;9.70;99.90;;;;;;5035356;28;20040;-69
2023/12/29 08:14:44;;;;;;;21.57;4.20;;;9.70;99.90;;;;;;5036330;28;20378;-69
2023/12/29 08:17:10;;;;;;;19.50;3.07;;;9.70;99.90;;;;;;5036705;28;20043;-69
2023/12/29 08:19:36;;;;;;;9.48;2.55;;;9.70;99.90;;;;;;5034085;28;20363;-69
2023/12/29 08:22:02;;;;;;;28.65;3.65;;;9.70;99.90;;;;;;5041781;28;20051;-69
2023/12/29 08:24:27;;;;;;;27.42;4.85;;;9.70;99.90;;;;;;5033349;28;20041;-69
2023/12/29 08:26:53;;;;;;;23.40;2.77;;;9.70;99.90;;;;;;5038489;28;20092;-69
2023/12/29 08:29:19;;;;;;;17.03;2.63;;;9.70;99.90;;;;;;5034540;28;20067;-69
2023/12/29 08:31:46;;;;;;;27.65;3.30;;;9.70;99.90;;;;;;5035722;28;20037;-69
2023/12/29 08:34:12;;;;;;;16.83;2.65;;;9.60;99.90;;;;;;5032841;28;20049;-69
2023/12/29 08:36:37;;;;;;;21.92;2.83;;;9.70;99.90;;;;;;5043312;28;20119;-69
2023/12/29 08:39:03;;;;;;;19.73;3.20;;;9.70;99.90;;;;;;5036199;28;20144;-69
2023/12/29 08:41:29;;;;;;;17.63;4.67;;;9.70;99.90;;;;;;5042085;28;20802;-69
2023/12/29 08:43:55;;;;;;;16.63;3.13;;;9.60;99.90;;;;;;5018677;28;20044;-69
2023/12/29 08:46:20;;;;;;;18.98;2.58;;;9.60;99.90;;;;;;5040596;28;20037;-69
2023/12/29 08:48:46;;;;;;;11.13;2.23;;;9.50;99.90;;;;;;5033683;28;20363;-69
2023/12/29 08:51:12;;;;;;;17.58;3.00;;;9.50;99.90;;;;;;5041597;28;20106;-69
2023/12/29 08:53:38;;;;;;;15.07;2.80;;;9.50;99.90;;;;;;5036209;28;20410;-69
2023/12/29 08:56:04;;;;;;;26.90;3.97;;;9.50;99.90;;;;;;5026209;28;20056;-69
2023/12/29 08:58:31;;;;;;;17.90;2.88;;;9.50;99.90;;;;;;5031325;28;20042;-69
2023/12/29 09:00:56;;;;;;;20.27;2.72;;;9.50;99.90;;;;;;5033355;28;20056;-69
2023/12/29 09:03:22;;;;;;;12.90;2.93;;;9.50;99.90;;;;;;5040594;28;20056;-69
2023/12/29 09:05:48;;;;;;;16.27;4.00;;;9.50;99.90;;;;;;5038426;28;20091;-69
2023/12/29 09:08:13;;;;;;;17.27;2.53;;;9.50;99.90;;;;;;5038290;28;20135;-69
2023/12/29 09:10:39;;;;;;;22.03;3.13;;;9.50;99.90;;;;;;5042745;28;20367;-69
2023/12/29 09:13:05;;;;;;;20.47;3.87;;;9.50;99.90;;;;;;5038433;28;20045;-69
2023/12/29 09:15:30;;;;;;;13.80;2.30;;;9.60;99.90;;;;;;5042576;28;20209;-69
2023/12/29 09:17:56;;;;;;;13.60;2.53;;;9.60;99.90;;;;;;5034996;28;20049;-69
2023/12/29 09:20:22;;;;;;;18.43;2.77;;;9.60;99.90;;;;;;5042410;28;20094;-69
2023/12/29 09:22:47;;;;;;;25.17;2.73;;;9.70;99.90;;;;;;5033064;28;20048;-69
2023/12/29 09:25:14;;;;;;;17.63;2.45;;;9.70;99.90;;;;;;5034828;28;20509;-69
2023/12/29 09:27:39;;;;;;;23.60;3.58;;;9.70;99.90;;;;;;5016203;28;20531;-69
2023/12/29 09:30:06;;;;;;;9.57;2.43;;;9.80;99.90;;;;;;5042684;28;20037;-69
2023/12/29 09:32:31;;;;;;;;;;;9.80;99.90;;;;;;5035175;28;20071;-69
2023/12/29 09:34:57;;;;;;;23.42;2.67;;;9.80;99.90;;;;;;5043455;28;20102;-69
2023/12/29 09:37:22;;;;;;;15.73;2.63;;;9.80;99.90;;;;;;5038508;28;20033;-69
2023/12/29 09:39:48;;;;;;;15.17;2.67;;;9.80;99.90;;;;;;5039410;28;20093;-69
2023/12/29 09:42:25;;;;;;;13.67;2.77;;;9.80;99.90;;;;;;5041667;28;20047;-69
2023/12/29 09:44:51;;;;;;;17.80;2.67;;;9.90;99.90;;;;;;5018128;28;20120;-69
2023/12/29 09:47:25;;;;;;;16.05;2.30;;;9.90;99.90;;;;;;5038007;28;20055;-69
2023/12/29 09:49:55;;;;;;;26.27;2.50;;;9.90;99.90;;;;;;5034271;28;20335;-69
2023/12/29 09:52:22;;;;;;;15.40;2.33;;;9.90;99.90;;;;;;5021451;28;20128;-69
2023/12/29 09:54:51;;;;;;;17.85;3.05;;;9.90;99.90;;;;;;5035182;28;20080;-68
2023/12/29 09:57:18;;;;;;;28.45;3.17;;;9.90;99.90;;;;;;5038881;28;20405;-69
2023/12/29 09:59:44;;;;;;;17.90;2.30;;;9.90;99.90;;;;;;5031061;28;20064;-69
2023/12/29 10:02:18;;;;;;;19.73;2.25;;;9.90;99.90;;;;;;5041532;28;20063;-69
2023/12/29 10:04:44;;;;;;;17.20;1.92;;;9.90;99.90;;;;;;5031392;28;20053;-69
2023/12/29 10:07:18;;;;;;;16.17;2.67;;;9.90;99.90;;;;;;5042066;28;20091;-69
2023/12/29 10:09:45;;;;;;;15.38;2.67;;;9.90;99.90;;;;;;5032859;28;20048;-69
2023/12/29 10:12:12;;;;;;;15.45;2.13;;;9.90;99.90;;;;;;5028002;28;20048;-69
2023/12/29 10:14:47;;;;;;;9.20;1.48;;;10.00;99.90;;;;;;5034138;28;20051;-69
2023/12/29 10:17:53;;;;;;;12.55;2.55;;;9.90;99.90;;;;;;5038514;28;20387;-69
2023/12/29 10:20:28;;;;;;;9.77;1.70;;;9.90;99.90;;;;;;5030889;28;20124;-69
2023/12/29 10:23:13;;;;;;;20.88;1.95;;;9.90;99.90;;;;;;5035858;28;20053;-69
2023/12/29 10:25:39;;;;;;;16.73;2.03;;;9.90;99.90;;;;;;5036115;28;20728;-69
2023/12/29 10:28:06;;;;;;;11.95;1.85;;;9.80;99.90;;;;;;5040679;28;20151;-69
2023/12/29 10:30:32;;;;;;;10.52;2.28;;;9.80;99.90;;;;;;5032350;28;20059;-69
2023/12/29 10:33:00;;;;;;;17.10;2.28;;;9.70;99.90;;;;;;5020215;28;20091;-69
2023/12/29 10:35:26;;;;;;;14.90;2.35;;;9.70;99.90;;;;;;5038608;28;20407;-69
2023/12/29 10:37:51;;;;;;;17.95;1.92;;;9.70;99.90;;;;;;5036579;28;20044;-69
2023/12/29 10:40:18;;;;;;;13.43;1.52;;;9.60;99.90;;;;;;5036190;28;20502;-69
2023/12/29 10:42:57;;;;;;;15.85;1.95;;;9.60;99.90;;;;;;5020156;28;20041;-69
2023/12/29 10:45:26;;;;;;;7.93;1.63;;;9.60;99.90;;;;;;5035884;28;20053;-69
2023/12/29 10:47:52;;;;;;;11.15;1.88;;;9.60;99.90;;;;;;5033954;28;20048;-69
2023/12/29 10:50:17;;;;;;;15.37;1.93;;;9.50;99.90;;;;;;5038668;28;20037;-69
2023/12/29 10:52:43;;;;;;;8.47;1.57;;;9.50;99.90;;;;;;5034989;28;20289;-69
2023/12/29 10:55:10;;;;;;;12.13;2.43;;;9.50;99.90;;;;;;5036549;28;20044;-69
2023/12/29 10:57:37;;;;;;;13.27;2.58;;;9.50;99.90;;;;;;5041189;28;20071;-69
2023/12/29 11:00:05;;;;;;;13.80;1.95;;;9.60;99.90;;;;;;5038811;28;20056;-69
2023/12/29 11:02:32;;;;;;;13.95;2.70;;;9.60;99.90;;;;;;5039004;28;20481;-69
2023/12/29 11:05:07;;;;;;;;;;;9.60;99.90;;;;;;5035418;28;20116;-69
2023/12/29 11:07:40;;;;;;;10.35;2.20;;;9.60;99.90;;;;;;5032603;28;20000;-69
2023/12/29 11:10:08;;;;;;;13.50;2.17;;;9.60;99.90;;;;;;5038703;28;20095;-69
2023/12/29 11:12:35;;;;;;;14.68;1.63;;;9.60;99.90;;;;;;5036723;28;20040;-69
2023/12/29 11:15:03;;;;;;;17.17;2.03;;;9.60;99.90;;;;;;5037196;28;20045;-69
2023/12/29 11:17:32;;;;;;;17.27;2.08;;;9.70;99.90;;;;;;5032342;28;20095;-69
2023/12/29 11:20:00;;;;;;;11.50;1.55;;;9.70;99.90;;;;;;5036448;28;20094;-69
2023/12/29 11:22:29;;;;;;;11.23;1.75;;;9.90;99.90;;;;;;5036288;28;20386;-69
2023/12/29 11:24:54;;;;;;;15.02;1.75;;;10.00;99.90;;;;;;5031692;28;20116;-69
2023/12/29 11:27:22;;;;;;;19.50;2.42;;;10.00;99.90;;;;;;5036419;28;20116;-69
2023/12/29 11:29:47;;;;;;;10.13;2.13;;;10.10;99.90;;;;;;5015503;28;20047;-69
2023/12/29 11:32:22;;;;;;;8.95;1.50;;;10.10;99.90;;;;;;5035220;28;20414;-69
2023/12/29 11:34:52;;;;;;;7.93;1.77;;;10.20;99.90;;;;;;5038958;28;20046;-69
2023/12/29 11:37:52;;;;;;;8.10;1.73;;;10.20;99.90;;;;;;5038822;28;20033;-69
2023/12/29 11:40:30;;;;;;;12.02;2.40;;;10.20;99.90;;;;;;5029021;28;20049;-69
2023/12/29 11:43:00;;;;;;;9.52;1.83;;;10.20;99.90;;;;;;5037240;28;20375;-69
2023/12/29 11:45:31;;;;;;;14.20;2.28;;;10.10;99.90;;;;;;5032606;28;20045;-69
2023/12/29 11:48:00;;;;;;;11.43;1.70;;;10.20;99.90;;;;;;5037254;28;20033;-69
2023/12/29 11:50:34;;;;;;;12.82;2.67;;;10.10;99.90;;;;;;5032784;28;20498;-69
2023/12/29 11:53:00;;;;;;;8.60;1.23;;;10.20;99.90;;;;;;5037005;28;20048;-69
2023/12/29 11:55:31;;;;;;;10.55;2.47;;;10.20;99.90;;;;;;5036592;28;20072;-69
2023/12/29 11:57:57;;;;;;;11.23;1.88;;;10.20;99.90;;;;;;5035149;28;20053;-69
2023/12/29 12:00:55;;;;;;;14.07;1.90;;;10.10;99.90;;;;;;5032141;28;20477;-69
2023/12/29 12:03:24;;;;;;;;;;;10.10;99.90;;;;;;5006855;28;20064;-69
2023/12/29 12:05:50;;;;;;;8.45;1.35;;;10.00;99.90;;;;;;5037621;28;20008;-69
2023/12/29 12:08:28;;;;;;;13.63;1.20;;;10.00;99.90;;;;;;5035755;28;20444;-69
2023/12/29 12:10:55;;;;;;;9.57;2.20;;;10.00;99.90;;;;;;5034590;28;20105;-69
2023/12/29 12:13:45;;;;;;;13.90;1.58;;;10.00;99.90;;;;;;5034804;28;20037;-69
2023/12/29 12:16:47;;;;;;;8.25;1.30;;;9.90;99.90;;;;;;5029763;28;20437;-69
2023/12/29 12:19:13;;;;;;;8.48;1.60;;;9.80;99.90;;;;;;5030816;28;20120;-69
2023/12/29 12:21:40;;;;;;;11.68;2.47;;;9.70;99.90;;;;;;5038833;28;20041;-69
2023/12/29 12:24:07;;;;;;;5.68;2.30;;;9.60;99.90;;;;;;5038938;28;20066;-69
2023/12/29 12:26:33;;;;;;;9.70;2.08;;;9.50;99.90;;;;;;5037915;28;20417;-69
2023/12/29 12:28:59;;;;;;;12.32;1.67;;;9.40;99.90;;;;;;5040666;28;20068;-69
2023/12/29 12:31:25;;;;;;;13.98;2.30;;;9.40;99.90;;;;;;5039812;28;20036;-69
2023/12/29 12:33:55;;;;;;;9.32;1.48;;;9.30;99.90;;;;;;5041150;28;20139;-69
2023/12/29 12:36:21;;;;;;;8.35;1.83;;;9.30;99.90;;;;;;5042701;28;20163;-69
2023/12/29 12:38:54;;;;;;;20.42;1.92;;;9.20;99.90;;;;;;5043230;28;20879;-69
2023/12/29 12:41:24;;;;;;;8.52;1.33;;;9.20;99.90;;;;;;5020986;28;20041;-69
2023/12/29 12:44:11;;;;;;;9.00;1.30;;;9.20;99.90;;;;;;5041181;28;20053;-69
2023/12/29 12:46:43;;;;;;;8.13;1.80;;;9.20;99.90;;;;;;5033675;28;20445;-69
2023/12/29 12:49:08;;;;;;;8.02;1.60;;;9.10;99.90;;;;;;5037038;28;20045;-69
2023/12/29 12:51:34;;;;;;;12.23;1.40;;;9.10;99.90;;;;;;5042540;28;20040;-69